createdAt,value
2022-11-05T00:00:37.820Z,100.00
2022-11-05T00:06:59.490Z,99.88
2022-11-05T00:13:20.176Z,100.00
2022-11-05T00:19:22.099Z,100.00
2022-11-05T00:25:24.129Z,100.00
2022-11-05T00:31:26.055Z,99.59
2022-11-05T00:37:28.983Z,100.00
2022-11-05T00:43:49.748Z,100.00
2022-11-05T00:49:51.617Z,100.00
2022-11-05T00:55:53.565Z,99.92
2022-11-05T01:01:55.572Z,99.87
2022-11-05T01:07:57.805Z,100.00
2022-11-05T01:14:07.770Z,100.00
2022-11-05T01:20:11.030Z,100.00
2022-11-05T01:26:13.094Z,100.00
2022-11-05T01:38:28.353Z,100.00
2022-11-05T01:44:59.970Z,100.00
2022-11-05T01:51:09.984Z,100.00
2022-11-05T01:57:12.595Z,100.00
2022-11-05T02:03:17.187Z,99.32
2022-11-05T02:09:55.085Z,100.00
2022-11-05T02:16:33.044Z,100.00
2022-11-05T02:29:48.227Z,100.00
2022-11-05T02:36:10.503Z,100.00
2022-11-05T02:42:26.426Z,100.00
2022-11-05T02:49:13.886Z,100.00
2022-11-05T02:55:45.068Z,100.00
2022-11-05T03:01:48.508Z,100.00
2022-11-05T03:08:05.075Z,100.00
2022-11-05T03:14:24.714Z,100.00
2022-11-05T03:20:44.350Z,100.00
2022-11-05T03:26:53.373Z,100.00
2022-11-05T03:33:03.321Z,100.00
2022-11-05T03:39:15.613Z,100.00
2022-11-05T03:45:26.725Z,100.00
2022-11-05T03:52:00.638Z,100.00
2022-11-05T03:58:07.136Z,100.00
2022-11-05T04:04:09.693Z,100.00
2022-11-05T04:10:30.484Z,100.00
2022-11-05T04:16:51.374Z,100.00
2022-11-05T04:23:25.249Z,100.00
2022-11-05T04:29:46.119Z,100.00
2022-11-05T04:35:49.330Z,100.00
2022-11-05T04:41:51.507Z,100.00
2022-11-05T04:47:53.582Z,100.00
2022-11-05T04:53:55.553Z,100.00
2022-11-05T04:59:57.832Z,100.00
2022-11-05T05:06:03.745Z,100.00
2022-11-05T05:12:06.748Z,100.00
2022-11-05T05:18:09.671Z,100.00
2022-11-05T05:24:17.352Z,100.00
2022-11-05T05:30:19.297Z,100.00
2022-11-05T05:36:22.593Z,100.00
2022-11-05T05:42:24.516Z,100.00
2022-11-05T05:48:26.417Z,100.00
2022-11-05T05:54:32.354Z,100.00
2022-11-05T06:00:36.179Z,100.00
2022-11-05T06:06:38.358Z,100.00
2022-11-05T06:12:40.205Z,100.00
2022-11-05T06:18:44.500Z,100.00
2022-11-05T06:24:46.470Z,100.00
2022-11-05T06:30:52.035Z,100.00
2022-11-05T06:36:56.405Z,100.00
2022-11-05T06:43:13.204Z,100.00
2022-11-05T06:49:15.506Z,100.00
2022-11-05T06:55:17.361Z,100.00
2022-11-05T07:01:19.743Z,100.00
2022-11-05T07:07:21.708Z,100.00
2022-11-05T07:13:23.633Z,100.00
2022-11-05T07:19:25.602Z,100.00
2022-11-05T07:25:44.009Z,100.00
2022-11-05T07:31:46.978Z,100.00
2022-11-05T07:37:52.096Z,100.00
2022-11-05T07:43:54.002Z,100.00
2022-11-05T07:56:20.777Z,100.00
2022-11-05T08:02:23.026Z,100.00
2022-11-05T08:08:25.639Z,100.00
2022-11-05T08:14:27.574Z,100.00
2022-11-05T08:20:37.204Z,100.00
2022-11-05T08:26:39.139Z,100.00
2022-11-05T08:32:42.211Z,100.00
2022-11-05T08:38:44.145Z,100.00
2022-11-05T08:45:06.915Z,100.00
2022-11-05T08:51:09.281Z,100.00
2022-11-05T08:57:11.207Z,100.00
2022-11-05T09:03:16.437Z,100.00
2022-11-05T09:09:18.513Z,100.00
2022-11-05T09:15:20.496Z,97.58
2022-11-05T09:21:22.736Z,93.93
2022-11-05T09:27:24.817Z,91.61
2022-11-05T09:33:27.999Z,91.70
2022-11-05T09:39:30.213Z,90.16
2022-11-05T09:45:35.402Z,86.99
2022-11-05T09:51:39.968Z,86.72
2022-11-05T09:57:57.359Z,85.36
2022-11-05T10:04:07.850Z,83.65
2022-11-05T10:16:44.042Z,86.22
2022-11-05T10:22:55.231Z,86.09
2022-11-05T10:28:57.237Z,84.00
2022-11-05T10:35:04.193Z,80.94
2022-11-05T10:48:26.010Z,80.27
2022-11-05T10:54:35.278Z,80.85
2022-11-05T11:00:37.687Z,79.87
2022-11-05T11:06:50.134Z,80.34
2022-11-05T11:13:52.435Z,80.75
2022-11-05T11:20:42.861Z,79.73
2022-11-05T11:26:49.316Z,80.13
2022-11-05T11:32:51.867Z,79.97
2022-11-05T11:39:01.426Z,77.74
2022-11-05T11:45:18.431Z,76.51
2022-11-05T11:51:49.497Z,74.54
2022-11-05T11:58:06.948Z,74.39
2022-11-05T12:04:51.375Z,73.58
2022-11-05T12:11:18.482Z,71.47
2022-11-05T12:17:58.159Z,71.59
2022-11-05T12:24:30.992Z,71.16
2022-11-05T12:31:06.183Z,69.91
2022-11-05T12:37:36.226Z,67.54
2022-11-05T12:44:07.294Z,69.39
2022-11-05T12:50:56.019Z,69.43
2022-11-05T12:57:01.978Z,65.56
2022-11-05T13:03:31.866Z,67.38
2022-11-05T13:10:03.265Z,64.45
2022-11-05T13:16:19.922Z,62.81
2022-11-05T13:22:38.479Z,60.06
2022-11-05T13:28:52.937Z,60.18
2022-11-05T13:35:05.405Z,59.54
2022-11-05T13:41:47.509Z,61.99
2022-11-05T13:48:20.210Z,61.69
2022-11-05T13:54:44.768Z,63.16
2022-11-05T14:00:58.752Z,64.02
2022-11-05T14:14:15.317Z,65.70
2022-11-05T14:20:42.557Z,66.69
2022-11-05T14:26:44.444Z,66.95
2022-11-05T14:32:50.005Z,66.21
2022-11-05T14:39:04.116Z,66.21
2022-11-05T14:45:34.101Z,64.88
2022-11-05T14:51:45.829Z,67.22
2022-11-05T14:58:16.163Z,67.64
2022-11-05T15:04:32.284Z,64.86
2022-11-05T15:10:37.474Z,65.90
2022-11-05T15:16:55.242Z,66.39
2022-11-05T15:23:00.548Z,66.81
2022-11-05T15:29:03.591Z,68.13
2022-11-05T15:35:32.585Z,70.22
2022-11-05T15:41:34.941Z,73.20
2022-11-05T15:47:36.942Z,76.03
2022-11-05T15:54:15.645Z,77.46
2022-11-05T16:00:33.057Z,78.76
2022-11-05T16:06:39.411Z,81.15
2022-11-05T16:12:41.449Z,81.34
2022-11-05T16:18:45.472Z,81.15
2022-11-05T16:24:48.105Z,80.85
2022-11-05T16:31:05.585Z,81.67
2022-11-05T16:37:18.233Z,81.62
2022-11-05T16:43:25.797Z,82.38
2022-11-05T16:49:27.715Z,82.44
2022-11-05T16:55:32.704Z,80.87
2022-11-05T17:01:37.012Z,81.04
2022-11-05T17:07:41.510Z,81.71
2022-11-05T17:14:46.188Z,82.31
2022-11-05T17:20:53.797Z,81.65
2022-11-05T17:26:55.713Z,81.05
2022-11-05T17:32:57.873Z,80.61
2022-11-05T17:38:59.840Z,80.68
2022-11-05T17:45:02.365Z,81.46
2022-11-05T17:51:21.582Z,81.61
2022-11-05T17:57:32.436Z,81.71
2022-11-05T18:03:35.978Z,81.18
2022-11-05T18:09:38.222Z,82.03
2022-11-05T18:15:48.804Z,82.52
2022-11-05T18:21:50.828Z,82.14
2022-11-05T18:27:52.808Z,82.52
2022-11-05T18:34:00.158Z,83.03
2022-11-05T18:40:03.999Z,82.30
2022-11-05T18:46:07.716Z,82.78
2022-11-05T18:52:10.143Z,82.67
2022-11-05T18:58:12.941Z,81.58
2022-11-05T19:04:15.431Z,81.97
2022-11-05T19:10:36.472Z,82.00
2022-11-05T19:16:39.838Z,81.77
2022-11-05T19:23:26.997Z,81.72
2022-11-05T19:29:29.105Z,82.60
2022-11-05T19:35:31.084Z,82.65
2022-11-05T19:41:33.114Z,82.87
2022-11-05T19:47:35.048Z,83.71
2022-11-05T19:53:38.875Z,82.87
2022-11-05T19:59:40.923Z,83.46
2022-11-05T20:05:43.324Z,83.95
2022-11-05T20:11:45.389Z,84.72
2022-11-05T20:24:05.131Z,84.48
2022-11-05T20:30:08.126Z,84.77
2022-11-05T20:36:17.594Z,85.20
2022-11-05T20:42:19.483Z,85.55
2022-11-05T20:48:21.399Z,86.15
2022-11-05T20:54:24.856Z,86.64
2022-11-05T21:00:26.696Z,87.25
2022-11-05T21:06:31.888Z,88.05
2022-11-05T21:12:36.841Z,88.93
2022-11-05T21:18:40.124Z,89.70
2022-11-05T21:24:43.185Z,89.72
2022-11-05T21:30:46.585Z,89.87
2022-11-05T21:36:48.537Z,90.32
2022-11-05T21:42:53.586Z,89.80
2022-11-05T21:48:55.719Z,89.82
2022-11-05T21:55:16.561Z,89.41
2022-11-05T22:01:18.868Z,89.56
2022-11-05T22:07:25.468Z,88.90
2022-11-05T22:13:27.762Z,88.00
2022-11-05T22:19:30.663Z,87.20
2022-11-05T22:25:32.738Z,87.22
2022-11-05T22:31:36.706Z,85.59
2022-11-05T22:37:39.022Z,86.45
2022-11-05T22:43:43.907Z,86.40
2022-11-05T22:49:46.196Z,86.51
2022-11-05T22:55:48.375Z,86.99
2022-11-05T23:01:50.446Z,87.57
2022-11-05T23:14:26.332Z,88.40
2022-11-05T23:20:46.496Z,89.51
2022-11-05T23:26:51.023Z,88.75
2022-11-05T23:32:53.628Z,89.53
2022-11-05T23:38:55.516Z,90.69
2022-11-05T23:45:16.457Z,91.01
2022-11-05T23:51:18.412Z,90.97
2022-11-05T23:57:20.287Z,91.58
